AirNav   Get a free Bose Revolve speaker with A20 purchase
 
 958 users online  

9U1 Wilsall Airport
Wilsall, Montana, USA

GOING TO WILSALL?


FAA INFORMATION EFFECTIVE 19 JULY 2018

Location

FAA Identifier: 9U1
Lat/Long: 46-02-58.7630N / 110-41-07.7500W
46-02.979383N / 110-41.129167W
46.0496564 / -110.6854861
(estimated)
Elevation: 5134 ft. / 1564.8 m (surveyed)
Variation: 16E (1985)
From city: 4 miles NW of WILSALL, MT
Time zone: UTC -6 (UTC -7 during Standard Time)
Zip code: 59086

Airport Operations

Airport use: Open to the public
Activation date: 02/1963
Control tower: no
ARTCC: SALT LAKE CITY CENTER
FSS: GREAT FALLS FLIGHT SERVICE STATION
NOTAMs facility: GTF (NOTAM-D service available)
Attendance: UNATNDD
Wind indicator: yes
Segmented circle: no

Airport Communications

CTAF: 122.9

Nearby radio navigation aids

VOR radial/distance  VOR name  Freq  Var
LVMr319/23.2LIVINGSTON VOR/DME116.1015E
BZNr033/25.3BOZEMAN VOR/DME112.4018E

Airport Services

Airframe service: NONE
Powerplant service: NONE
Bottled oxygen: NONE
Bulk oxygen: NONE

Runway Information

Runway 1/19

Dimensions: 3100 x 78 ft. / 945 x 24 m
Surface: turf, in poor condition
SOFT WHEN WET; GOPHER HOLES ON RY. POOR CONDITION
Runway edge markings: 01/19 RWY AND THRESHOLD MKD WITH WHITE CONES FULL LENGTH. POOR CONDITION
RUNWAY 1  RUNWAY 19
Gradient: 0.5%0.5%
Traffic pattern: leftleft
Markings: NSTD, in poor conditionNSTD, in poor condition

Airport Ownership and Management from official FAA records

Ownership: Publicly-owned
Owner: CITY OF WILSALL & PARK COUNTY
COUNTY BLDG
LIVINGSTON, MT 59047
Phone 406-222-6120
Manager: RUSSEL FERGUSON
82 AIRPORT RD
LIVINGSTON, MT 59047
Phone 406-222-6504
FOR CURRENT ARPT INFO CONTACT JERRY MILLER 406-223-8460

Airport Operational Statistics

Aircraft operations: 60/year *
83% local general aviation
17% transient general aviation
* for 12-month period ending 21 August 2017

Additional Remarks

FENCE PARALLEL TO RY BOTH SIDES 100 FT E & 105 FT W.
WILDLIFE ON & INVOF ARPT.
MODEL AIRPLANE USAGE INVOF AIRPORT.

Instrument Procedures

There are no published instrument procedures at 9U1.

Some nearby airports with instrument procedures:

KLVM - Mission Field Airport (23 nm SE)
KBZN - Bozeman Yellowstone International Airport (25 nm SW)
6S0 - Big Timber Airport (33 nm SE)
KEKS - Ennis - Big Sky Airport (62 nm SW)
KHLN - Helena Regional Airport (63 nm NW)
 
Loc | Ops | Rwys | IFR | FBO | Links
Com | Nav | Svcs | Stats | Notes


 
Area around 9U1 (Wilsall Airport)
 
Road maps at: MapQuest Bing Google
 
Aerial photo
WARNING: Photo may not be current or correct
Aerial photo of 9U1 (Wilsall Airport)
Photo by Richard E. Grimm

Do you have a better or more recent aerial photo of Wilsall Airport that you would like to share? If so, please send us your photo.

 
Sectional chart

 
Airport distance calculator
Flying to Wilsall Airport? Find the distance to fly.

From to 9U1

Sunrise and sunset
Times for 22-Jul-2018
 Local
(UTC-6)
 Zulu
(UTC)
Morning civil twilight05:1911:19
Sunrise05:5511:55
Sunset21:0403:04
Evening civil twilight21:4003:40

Current date and time
Zulu (UTC)  22-Jul-2018 13:24:52
Local (UTC-6)  22-Jul-2018 07:24:52
 
METAR
KLVM 
23nm SE 
221253Z AUTO 27009KT 10SM CLR 14/03 A3024 RMK AO2 SLP206 T01440028
KBZN 
26nm SW 
221256Z 15007KT 10SM CLR 10/05 A3027 RMK AO2 SLP215 T01000050
K6S0 
33nm SE 
221255Z AUTO 27010G16KT 10SM CLR 17/01 A3022 RMK A01
9S5 
38nm W 
SuperAWOS
221255Z AUTO 00000KT 10SM 08/04 A3022
TAF
KLVM 
23nm SE 
221141Z 2212/2312 31010KT P6SM FEW200 FM221400 27012G20KT P6SM FEW200 FM222000 08010KT P6SM FEW200
KBZN 
26nm SW 
221153Z 2212/2318 15005KT P6SM FEW100 FM221800 35005KT P6SM SKC
NOTAMs
Click for the latest NOTAMs
NOTAMs are issued by the DoD/FAA and will open in a separate window not controlled by AirNav.

 

 
 

Would you like to see your business listed on this page?

 If your business provides an interesting product or service to pilots, flight crews, aircraft, or users of the Wilsall Airport, you should consider listing it here.  To start the listing process, click on the button below
 
Add a business
 

Other Pages about Wilsall Airport

Update a link
 
Copyright © AirNav, LLC. All rights reserved. Privacy Policy  Contact